createdAt,value
2023-02-04T00:00:26.527Z,11.80
2023-02-04T00:02:57.607Z,15.10
2023-02-04T00:05:28.435Z,11.80
2023-02-04T00:07:59.192Z,8.10
2023-02-04T00:10:30.286Z,14.20
2023-02-04T00:13:01.297Z,14.90
2023-02-04T00:15:32.723Z,13.80
2023-02-04T00:18:04.050Z,10.50
2023-02-04T00:20:35.047Z,17.70
2023-02-04T00:23:06.045Z,13.50
2023-02-04T00:25:36.789Z,14.50
2023-02-04T00:28:07.871Z,13.60
2023-02-04T00:30:38.701Z,12.80
2023-02-04T00:33:09.480Z,13.50
2023-02-04T00:35:40.560Z,10.10
2023-02-04T00:38:11.327Z,11.40
2023-02-04T00:40:42.177Z,12.60
2023-02-04T00:43:12.958Z,12.30
2023-02-04T00:45:43.785Z,15.20
2023-02-04T00:48:14.507Z,13.60
2023-02-04T00:50:45.479Z,13.30
2023-02-04T00:53:16.344Z,14.50
2023-02-04T00:55:47.137Z,12.40
2023-02-04T00:58:17.977Z,13.60
2023-02-04T01:00:49.276Z,18.10
2023-02-04T01:03:20.511Z,11.90
2023-02-04T01:05:52.030Z,9.30
2023-02-04T01:08:23.058Z,14.60
2023-02-04T01:10:53.861Z,15.40
2023-02-04T01:13:24.604Z,12.70
2023-02-04T01:15:55.305Z,14.20
2023-02-04T01:18:26.421Z,11.40
2023-02-04T01:20:57.190Z,11.40
2023-02-04T01:23:27.989Z,12.50
2023-02-04T01:25:59.243Z,28.20
2023-02-04T01:28:30.230Z,11.90
2023-02-04T01:31:02.543Z,13.20
2023-02-04T01:33:33.333Z,10.90
2023-02-04T01:36:04.066Z,11.90
2023-02-04T01:38:35.200Z,11.80
2023-02-04T01:41:07.536Z,9.90
2023-02-04T01:43:38.272Z,13.40
2023-02-04T01:46:09.919Z,13.80
2023-02-04T01:48:40.911Z,13.10
2023-02-04T01:51:13.991Z,12.90
2023-02-04T01:53:45.227Z,10.50
2023-02-04T01:56:19.402Z,10.20
2023-02-04T01:58:50.924Z,10.40
2023-02-04T02:01:36.911Z,12.60
2023-02-04T02:04:08.775Z,17.20
2023-02-04T02:06:41.953Z,11.80
2023-02-04T02:09:12.744Z,12.00
2023-02-04T02:11:43.732Z,11.50
2023-02-04T02:14:15.335Z,10.10
2023-02-04T02:16:46.244Z,9.80
2023-02-04T02:19:27.910Z,11.70
2023-02-04T02:22:06.470Z,16.70
2023-02-04T02:24:38.132Z,13.00
2023-02-04T02:27:11.926Z,8.90
2023-02-04T02:29:43.971Z,10.60
2023-02-04T02:32:16.347Z,12.50
2023-02-04T02:34:48.249Z,14.40
2023-02-04T02:37:19.275Z,10.30
2023-02-04T02:39:50.308Z,8.70
2023-02-04T02:42:22.756Z,10.60
2023-02-04T02:44:54.075Z,10.60
2023-02-04T02:47:25.974Z,11.50
2023-02-04T02:49:57.619Z,7.90
2023-02-04T02:52:28.477Z,8.00
2023-02-04T02:54:59.758Z,9.20
2023-02-04T02:57:31.466Z,9.00
2023-02-04T03:00:02.784Z,9.80
2023-02-04T03:02:33.791Z,8.80
2023-02-04T03:05:04.728Z,8.60
2023-02-04T03:07:36.037Z,8.70
2023-02-04T03:10:07.951Z,7.20
2023-02-04T03:12:39.110Z,8.30
2023-02-04T03:15:10.938Z,11.20
2023-02-04T03:17:42.491Z,7.10
2023-02-04T03:20:15.002Z,8.70
2023-02-04T03:22:45.912Z,13.10
2023-02-04T03:25:17.087Z,9.20
2023-02-04T03:27:47.964Z,7.90
2023-02-04T03:30:19.146Z,9.10
2023-02-04T03:32:50.239Z,13.90
2023-02-04T03:35:24.746Z,8.00
2023-02-04T03:37:55.644Z,11.20
2023-02-04T03:40:26.948Z,8.00
2023-02-04T03:42:57.838Z,10.40
2023-02-04T03:45:37.441Z,10.80
2023-02-04T03:48:14.939Z,10.80
2023-02-04T03:50:45.726Z,7.80
2023-02-04T03:53:16.583Z,6.90
2023-02-04T03:55:47.333Z,9.70
2023-02-04T03:58:18.327Z,6.70
2023-02-04T04:00:49.167Z,9.10
2023-02-04T04:03:20.096Z,8.70
2023-02-04T04:05:50.932Z,8.50
2023-02-04T04:08:24.250Z,8.40
2023-02-04T04:10:54.968Z,9.00
2023-02-04T04:13:25.774Z,6.80
2023-02-04T04:15:56.448Z,9.00
2023-02-04T04:18:27.190Z,6.70
2023-02-04T04:20:57.999Z,8.90
2023-02-04T04:23:28.759Z,7.40
2023-02-04T04:25:59.602Z,7.10
2023-02-04T04:28:30.448Z,7.40
2023-02-04T04:31:01.336Z,8.50
2023-02-04T04:33:32.279Z,9.80
2023-02-04T04:36:03.145Z,11.10
2023-02-04T04:38:33.853Z,6.00
2023-02-04T04:41:04.716Z,7.70
2023-02-04T04:43:35.503Z,10.20
2023-02-04T04:46:06.284Z,9.90
2023-02-04T04:48:37.035Z,12.10
2023-02-04T04:51:08.304Z,10.00
2023-02-04T04:53:42.052Z,8.70
2023-02-04T04:56:12.809Z,10.40
2023-02-04T04:58:43.624Z,8.10
2023-02-04T05:01:14.445Z,11.40
2023-02-04T05:03:45.181Z,11.50
2023-02-04T05:06:16.135Z,12.40
2023-02-04T05:08:46.870Z,9.50
2023-02-04T05:11:17.692Z,10.90
2023-02-04T05:13:48.734Z,8.30
2023-02-04T05:16:19.703Z,8.40
2023-02-04T05:18:50.426Z,8.50
2023-02-04T05:21:21.222Z,8.20
2023-02-04T05:23:51.920Z,12.70
2023-02-04T05:26:30.174Z,11.80
2023-02-04T05:29:02.002Z,6.30
2023-02-04T05:31:33.228Z,9.90
2023-02-04T05:34:03.985Z,6.90
2023-02-04T05:36:34.723Z,6.70
2023-02-04T05:39:05.601Z,8.60
2023-02-04T05:41:36.423Z,8.70
2023-02-04T05:44:07.605Z,9.90
2023-02-04T05:46:39.303Z,7.90
2023-02-04T05:49:10.612Z,7.00
2023-02-04T05:51:41.438Z,8.40
2023-02-04T05:54:19.437Z,9.60
2023-02-04T05:56:51.906Z,9.10
2023-02-04T05:59:22.799Z,10.10
2023-02-04T06:01:53.618Z,8.50
2023-02-04T06:04:24.558Z,7.60
2023-02-04T06:06:55.314Z,7.20
2023-02-04T06:09:26.073Z,12.80
2023-02-04T06:11:57.663Z,12.20
2023-02-04T06:14:28.502Z,9.40
2023-02-04T06:16:59.882Z,9.10
2023-02-04T06:19:30.777Z,8.70
2023-02-04T06:22:01.680Z,10.10
2023-02-04T06:24:32.565Z,10.40
2023-02-04T06:27:03.366Z,7.70
2023-02-04T06:29:34.154Z,8.70
2023-02-04T06:32:05.122Z,29.20
2023-02-04T06:34:35.844Z,11.50
2023-02-04T06:37:06.572Z,8.10
2023-02-04T06:39:37.350Z,10.30
2023-02-04T06:42:11.782Z,10.30
2023-02-04T06:44:42.597Z,11.50
2023-02-04T06:47:13.425Z,11.00
2023-02-04T06:49:44.260Z,9.20
2023-02-04T06:52:15.003Z,9.10
2023-02-04T06:54:45.808Z,10.60
2023-02-04T06:57:16.544Z,8.00
2023-02-04T06:59:48.180Z,11.30
2023-02-04T07:02:19.005Z,7.90
2023-02-04T07:04:49.772Z,12.20
2023-02-04T07:07:20.519Z,16.40
2023-02-04T07:09:51.503Z,11.00
2023-02-04T07:12:22.417Z,10.00
2023-02-04T07:14:53.312Z,9.20
2023-02-04T07:17:24.418Z,9.60
2023-02-04T07:19:55.129Z,11.40
2023-02-04T07:22:26.494Z,11.30
2023-02-04T07:24:57.271Z,9.10
2023-02-04T07:27:28.418Z,8.40
2023-02-04T07:29:59.263Z,7.50
2023-02-04T07:32:33.060Z,9.60
2023-02-04T07:35:03.861Z,7.20
2023-02-04T07:37:34.635Z,22.70
2023-02-04T07:40:05.834Z,7.50
2023-02-04T07:42:36.640Z,9.40
2023-02-04T07:45:11.545Z,6.40
2023-02-04T07:47:42.360Z,7.50
2023-02-04T07:50:14.442Z,7.20
2023-02-04T07:52:45.301Z,5.70
2023-02-04T07:55:16.325Z,8.60
2023-02-04T07:57:47.159Z,6.50
2023-02-04T08:00:19.013Z,5.50
2023-02-04T08:02:50.130Z,7.40
2023-02-04T08:05:21.047Z,6.00
2023-02-04T08:07:52.105Z,7.20
2023-02-04T08:10:23.902Z,6.30
2023-02-04T08:12:54.739Z,5.80
2023-02-04T08:15:25.511Z,7.70
2023-02-04T08:17:56.466Z,5.50
2023-02-04T08:20:27.467Z,4.40
2023-02-04T08:22:58.851Z,8.20
2023-02-04T08:25:29.781Z,4.00
2023-02-04T08:28:00.677Z,4.80
2023-02-04T08:30:31.885Z,4.80
2023-02-04T08:33:02.887Z,4.10
2023-02-04T08:35:33.653Z,3.90
2023-02-04T08:38:04.451Z,4.70
2023-02-04T08:40:35.330Z,5.60
2023-02-04T08:43:06.013Z,4.10
2023-02-04T08:45:36.908Z,7.80
2023-02-04T08:48:07.857Z,4.70
2023-02-04T08:50:39.206Z,3.10
2023-02-04T08:53:10.018Z,6.90
2023-02-04T08:55:40.754Z,4.90
2023-02-04T08:58:11.721Z,3.90
2023-02-04T09:00:42.562Z,5.40
2023-02-04T09:03:13.290Z,5.30
2023-02-04T09:05:44.108Z,3.80
2023-02-04T09:08:15.786Z,4.10
2023-02-04T09:10:46.623Z,4.00
2023-02-04T09:13:17.563Z,2.60
2023-02-04T09:15:48.297Z,6.60
2023-02-04T09:18:22.121Z,4.50
2023-02-04T09:20:54.373Z,2.90
2023-02-04T09:23:25.087Z,2.20
2023-02-04T09:25:55.949Z,3.10
2023-02-04T09:28:26.891Z,5.70
2023-02-04T09:30:57.756Z,4.80
2023-02-04T09:33:28.645Z,4.50
2023-02-04T09:35:59.514Z,2.10
2023-02-04T09:38:30.311Z,3.70
2023-02-04T09:41:08.673Z,3.70
2023-02-04T09:43:42.363Z,2.90
2023-02-04T09:46:21.740Z,5.40
2023-02-04T09:48:53.450Z,3.40
2023-02-04T09:51:30.405Z,3.60
2023-02-04T09:54:09.847Z,4.00
2023-02-04T09:56:41.005Z,3.20
2023-02-04T09:59:15.938Z,5.10
2023-02-04T10:04:17.135Z,7.00
2023-02-04T10:06:48.200Z,3.30
2023-02-04T10:09:20.061Z,2.70
2023-02-04T10:11:51.248Z,4.50
2023-02-04T10:14:24.846Z,5.80
2023-02-04T10:16:59.533Z,5.00
2023-02-04T10:22:01.548Z,5.40
2023-02-04T10:24:34.742Z,6.30
2023-02-04T10:27:16.161Z,6.40
2023-02-04T10:29:58.189Z,8.80
2023-02-04T10:32:40.699Z,5.70
2023-02-04T10:35:21.676Z,5.70
2023-02-04T10:38:12.190Z,10.10
2023-02-04T10:40:49.489Z,4.60
2023-02-04T10:43:32.829Z,6.60
2023-02-04T10:46:04.986Z,6.50
2023-02-04T10:48:43.753Z,9.10
2023-02-04T10:51:15.271Z,5.90
2023-02-04T10:54:05.692Z,7.70
2023-02-04T10:56:36.547Z,6.40
2023-02-04T10:59:12.643Z,5.80
2023-02-04T11:01:43.457Z,6.90
2023-02-04T11:04:14.295Z,8.50
2023-02-04T11:06:46.617Z,9.80
2023-02-04T11:09:18.106Z,10.10
2023-02-04T11:11:52.868Z,10.60
2023-02-04T11:14:30.441Z,13.00
2023-02-04T11:17:03.477Z,17.80
2023-02-04T11:19:38.367Z,7.30
2023-02-04T11:22:22.926Z,8.30
2023-02-04T11:24:54.092Z,7.30
2023-02-04T11:27:39.381Z,5.80
2023-02-04T11:30:23.837Z,7.30
2023-02-04T11:33:04.907Z,8.10
2023-02-04T11:35:36.382Z,7.00
2023-02-04T11:38:20.601Z,5.90
2023-02-04T11:40:59.298Z,6.30
2023-02-04T11:43:34.796Z,9.50
2023-02-04T11:46:14.000Z,8.20
2023-02-04T11:48:45.632Z,7.60
2023-02-04T11:51:29.712Z,6.70
2023-02-04T11:54:05.095Z,14.70
2023-02-04T11:56:41.693Z,12.90
2023-02-04T11:59:14.777Z,6.70
2023-02-04T12:01:45.642Z,7.30
2023-02-04T12:04:26.880Z,7.00
2023-02-04T12:07:03.400Z,12.20
2023-02-04T12:09:34.687Z,8.10
2023-02-04T12:12:06.699Z,8.40
2023-02-04T12:14:42.045Z,10.40
2023-02-04T12:17:21.609Z,10.10
2023-02-04T12:19:52.429Z,9.80
2023-02-04T12:22:23.273Z,8.00
2023-02-04T12:24:54.019Z,8.80
2023-02-04T12:27:24.931Z,8.10
2023-02-04T12:29:55.761Z,10.20
2023-02-04T12:32:26.579Z,13.70
2023-02-04T12:34:57.310Z,12.50
2023-02-04T12:37:28.084Z,12.10
2023-02-04T12:39:58.846Z,12.10
2023-02-04T12:42:29.625Z,8.30
2023-02-04T12:45:00.601Z,6.60
2023-02-04T12:47:31.401Z,8.40
2023-02-04T12:50:02.142Z,21.10
2023-02-04T12:52:33.171Z,13.30
2023-02-04T12:55:05.080Z,7.60
2023-02-04T12:57:38.418Z,10.70
2023-02-04T13:00:11.274Z,11.70
2023-02-04T13:02:42.181Z,7.70
2023-02-04T13:05:14.109Z,8.90
2023-02-04T13:07:45.351Z,7.20
2023-02-04T13:10:16.853Z,6.20
2023-02-04T13:12:47.760Z,7.70
2023-02-04T13:15:20.691Z,5.80
2023-02-04T13:17:51.681Z,5.40
2023-02-04T13:20:22.644Z,6.90
2023-02-04T13:22:53.408Z,5.40
2023-02-04T13:25:24.242Z,5.30
2023-02-04T13:27:55.032Z,5.30
2023-02-04T13:30:26.060Z,4.80
2023-02-04T13:32:56.861Z,4.80
2023-02-04T13:35:28.980Z,6.90
2023-02-04T13:38:02.486Z,5.00
2023-02-04T13:40:34.470Z,4.20
2023-02-04T13:43:05.860Z,3.80
2023-02-04T13:45:36.692Z,4.70
2023-02-04T13:48:07.605Z,4.20
2023-02-04T13:50:38.374Z,4.80
2023-02-04T13:53:09.454Z,5.10
2023-02-04T13:55:41.376Z,6.20
2023-02-04T13:58:12.187Z,6.50
2023-02-04T14:00:43.301Z,3.20
2023-02-04T14:03:14.280Z,3.40
2023-02-04T14:05:45.100Z,5.00
2023-02-04T14:08:15.920Z,3.80
2023-02-04T14:10:46.715Z,5.60
2023-02-04T14:13:17.505Z,3.20
2023-02-04T14:15:48.354Z,3.50
2023-02-04T14:18:19.151Z,7.10
2023-02-04T14:20:49.909Z,3.40
2023-02-04T14:23:20.674Z,5.30
2023-02-04T14:25:51.438Z,18.80
2023-02-04T14:28:22.666Z,11.50
2023-02-04T14:30:54.940Z,5.10
2023-02-04T14:33:27.761Z,4.10
2023-02-04T14:36:00.872Z,5.70
2023-02-04T14:38:33.828Z,5.60
2023-02-04T14:41:04.719Z,5.50
2023-02-04T14:43:37.441Z,5.20
2023-02-04T14:46:08.606Z,6.30
2023-02-04T14:48:39.624Z,7.20
2023-02-04T14:51:10.324Z,13.00
2023-02-04T14:53:46.074Z,5.80
2023-02-04T14:56:19.532Z,6.20
2023-02-04T14:58:50.244Z,6.80
2023-02-04T15:01:21.006Z,4.60
2023-02-04T15:03:52.039Z,5.10
2023-02-04T15:06:22.923Z,5.70
2023-02-04T15:08:53.762Z,4.20
2023-02-04T15:11:24.468Z,4.10
2023-02-04T15:13:55.177Z,6.50
2023-02-04T15:16:25.941Z,7.60
2023-02-04T15:18:57.222Z,3.70
2023-02-04T15:21:28.523Z,5.60
2023-02-04T15:23:59.254Z,6.60
2023-02-04T15:26:29.914Z,5.50
2023-02-04T15:29:00.677Z,8.40
2023-02-04T15:31:33.608Z,4.20
2023-02-04T15:34:06.065Z,7.50
2023-02-04T15:36:37.145Z,7.50
2023-02-04T15:39:08.184Z,7.70
2023-02-04T15:41:38.934Z,7.20
2023-02-04T15:44:10.951Z,5.70
2023-02-04T15:46:44.493Z,6.70
2023-02-04T15:49:15.319Z,10.70
2023-02-04T15:51:46.158Z,7.70
2023-02-04T15:54:17.053Z,20.10
2023-02-04T15:56:48.017Z,10.00
2023-02-04T15:59:18.792Z,11.90
2023-02-04T16:01:50.766Z,10.60
2023-02-04T16:04:22.095Z,9.70
2023-02-04T16:06:58.829Z,7.90
2023-02-04T16:09:30.044Z,12.50
2023-02-04T16:12:00.922Z,9.30
2023-02-04T16:14:31.831Z,13.50
2023-02-04T16:17:02.916Z,14.40
2023-02-04T16:19:33.721Z,11.00
2023-02-04T16:22:06.234Z,19.30
2023-02-04T16:24:38.755Z,16.50
2023-02-04T16:27:09.526Z,16.20
2023-02-04T16:29:40.226Z,20.20
2023-02-04T16:32:11.133Z,21.80
2023-02-04T16:34:42.562Z,20.30
2023-02-04T16:37:13.688Z,21.40
2023-02-04T16:39:45.340Z,47.30
2023-02-04T16:42:16.297Z,33.60
2023-02-04T16:44:47.236Z,24.00
2023-02-04T16:47:18.018Z,23.90
2023-02-04T16:49:49.761Z,22.40
2023-02-04T16:52:20.879Z,21.80
2023-02-04T16:54:51.696Z,20.10
2023-02-04T16:57:22.456Z,17.30
2023-02-04T16:59:53.281Z,15.20
2023-02-04T17:02:24.274Z,13.80
2023-02-04T17:04:55.426Z,12.30
2023-02-04T17:07:27.827Z,14.10
2023-02-04T17:09:58.782Z,14.60
2023-02-04T17:12:29.530Z,13.40
2023-02-04T17:15:00.268Z,14.10
2023-02-04T17:17:31.086Z,12.90
2023-02-04T17:20:01.746Z,14.60
2023-02-04T17:22:32.551Z,18.50
2023-02-04T17:25:03.264Z,14.50
2023-02-04T17:27:34.067Z,18.00
2023-02-04T17:30:05.060Z,29.00
2023-02-04T17:32:35.861Z,19.60
2023-02-04T17:35:06.944Z,20.60
2023-02-04T17:37:37.793Z,24.40
2023-02-04T17:40:12.875Z,23.10
2023-02-04T17:42:43.673Z,22.70
2023-02-04T17:45:15.545Z,19.00
2023-02-04T17:47:46.503Z,17.80
2023-02-04T17:50:17.355Z,19.50
2023-02-04T17:52:48.174Z,21.20
2023-02-04T17:55:25.551Z,23.20
2023-02-04T17:57:57.320Z,24.50
2023-02-04T18:00:30.972Z,18.20
2023-02-04T18:03:02.021Z,24.80
2023-02-04T18:05:36.086Z,25.90
2023-02-04T18:08:15.057Z,23.70
2023-02-04T18:10:47.346Z,24.70
2023-02-04T18:13:20.619Z,20.10
2023-02-04T18:15:53.408Z,19.00
2023-02-04T18:18:29.300Z,19.10
2023-02-04T18:21:14.734Z,21.20
2023-02-04T18:23:46.449Z,21.10
2023-02-04T18:26:20.246Z,14.40
2023-02-04T18:28:51.760Z,16.70
2023-02-04T18:31:30.207Z,20.90
2023-02-04T18:34:01.378Z,18.70
2023-02-04T18:36:35.428Z,21.30
2023-02-04T18:39:18.580Z,18.30
2023-02-04T18:41:51.625Z,23.60
2023-02-04T18:44:32.832Z,19.00
2023-02-04T18:47:10.472Z,17.80
2023-02-04T18:49:44.078Z,20.80
2023-02-04T18:52:22.112Z,22.00
2023-02-04T18:54:54.183Z,17.70
2023-02-04T18:57:38.296Z,22.20
2023-02-04T19:00:30.959Z,16.00
2023-02-04T19:03:09.286Z,20.80
2023-02-04T19:05:48.392Z,17.80
2023-02-04T19:08:27.930Z,19.40
2023-02-04T19:10:59.908Z,22.60
2023-02-04T19:13:42.527Z,18.70
2023-02-04T19:16:22.729Z,18.20
2023-02-04T19:18:55.909Z,18.50
2023-02-04T19:21:29.999Z,15.70
2023-02-04T19:24:13.306Z,14.50
2023-02-04T19:26:50.764Z,15.20
2023-02-04T19:29:42.224Z,19.20
2023-02-04T19:32:33.632Z,29.40
2023-02-04T19:35:18.573Z,22.30
2023-02-04T19:37:53.224Z,22.90
2023-02-04T19:40:31.085Z,18.90
2023-02-04T19:43:19.647Z,18.00
2023-02-04T19:45:52.100Z,19.90
2023-02-04T19:48:34.650Z,16.30
2023-02-04T19:51:20.455Z,22.00
2023-02-04T19:53:52.228Z,22.20
2023-02-04T19:56:36.093Z,21.20
2023-02-04T19:59:25.131Z,26.00
2023-02-04T20:02:05.654Z,24.40
2023-02-04T20:04:39.879Z,18.50
2023-02-04T20:07:23.153Z,23.20
2023-02-04T20:10:00.132Z,27.60
2023-02-04T20:12:33.363Z,23.50
2023-02-04T20:15:12.567Z,29.40
2023-02-04T20:17:45.977Z,24.50
2023-02-04T20:20:40.587Z,29.30
2023-02-04T20:23:28.804Z,29.10
2023-02-04T20:26:01.012Z,19.90
2023-02-04T20:28:40.085Z,16.30
2023-02-04T20:31:23.538Z,22.80
2023-02-04T20:33:58.391Z,20.10
2023-02-04T20:36:46.841Z,19.50
2023-02-04T20:39:38.388Z,15.70
2023-02-04T20:42:41.068Z,19.00
2023-02-04T20:45:30.240Z,16.40
2023-02-04T20:48:11.599Z,18.10
2023-02-04T20:50:45.504Z,15.40
2023-02-04T20:53:23.131Z,21.50
2023-02-04T20:56:03.654Z,19.00
2023-02-04T20:58:39.647Z,18.30
2023-02-04T21:01:26.401Z,19.10
2023-02-04T21:03:59.482Z,23.10
2023-02-04T21:06:33.203Z,26.80
2023-02-04T21:09:04.484Z,21.50
2023-02-04T21:11:35.622Z,20.90
2023-02-04T21:14:07.386Z,17.00
2023-02-04T21:16:38.168Z,25.00
2023-02-04T21:19:13.684Z,23.20
2023-02-04T21:21:44.554Z,21.80
2023-02-04T21:24:15.392Z,20.50
2023-02-04T21:26:46.176Z,24.50
2023-02-04T21:29:17.005Z,18.50
2023-02-04T21:31:47.821Z,24.40
2023-02-04T21:34:18.685Z,21.00
2023-02-04T21:36:49.807Z,18.40
2023-02-04T21:39:20.866Z,23.50
2023-02-04T21:42:10.070Z,28.30
2023-02-04T21:44:41.128Z,19.50
2023-02-04T21:47:11.872Z,18.90
2023-02-04T21:49:43.114Z,27.20
2023-02-04T21:52:15.181Z,22.60
2023-02-04T21:54:45.916Z,22.50
2023-02-04T21:57:16.768Z,24.00
2023-02-04T21:59:48.377Z,23.70
2023-02-04T22:02:19.184Z,23.90
2023-02-04T22:04:49.960Z,29.20
2023-02-04T22:07:21.129Z,24.50
2023-02-04T22:09:51.970Z,25.70
2023-02-04T22:12:23.067Z,22.90
2023-02-04T22:15:11.783Z,21.70
2023-02-04T22:17:42.418Z,24.50
2023-02-04T22:20:16.272Z,22.80
2023-02-04T22:22:48.180Z,24.00
2023-02-04T22:25:20.917Z,22.00
2023-02-04T22:27:51.987Z,25.10
2023-02-04T22:30:23.024Z,21.70
2023-02-04T22:32:53.738Z,25.70
2023-02-04T22:35:26.732Z,25.00
2023-02-04T22:38:00.030Z,23.80
2023-02-04T22:40:35.019Z,13.20
2023-02-04T22:43:06.577Z,19.40
2023-02-04T22:45:37.358Z,17.80
2023-02-04T22:48:11.135Z,23.80
2023-02-04T22:50:41.910Z,27.20
2023-02-04T22:53:12.674Z,25.20
2023-02-04T22:55:51.336Z,23.70
2023-02-04T22:58:22.509Z,20.80
2023-02-04T23:00:53.373Z,22.20
2023-02-04T23:03:24.135Z,25.70
2023-02-04T23:05:55.107Z,19.30
2023-02-04T23:08:27.419Z,18.50
2023-02-04T23:10:58.320Z,17.60
2023-02-04T23:13:29.711Z,24.70
2023-02-04T23:16:00.612Z,19.90
2023-02-04T23:18:31.353Z,23.60
2023-02-04T23:21:02.486Z,26.50
2023-02-04T23:23:36.522Z,22.50
2023-02-04T23:26:07.573Z,22.10
2023-02-04T23:28:38.910Z,20.00
2023-02-04T23:31:09.806Z,22.90
2023-02-04T23:33:40.738Z,31.10
2023-02-04T23:36:16.252Z,23.10
2023-02-04T23:38:46.967Z,23.10
2023-02-04T23:41:21.444Z,27.50
2023-02-04T23:43:52.624Z,23.00
2023-02-04T23:46:23.781Z,26.00
2023-02-04T23:48:55.017Z,23.50
2023-02-04T23:51:25.913Z,28.10
2023-02-04T23:53:56.878Z,25.80
2023-02-04T23:56:27.658Z,22.50
2023-02-04T23:58:58.783Z,26.80
